sensor_id;sensor_type;location;lat;lon;timestamp;P1;durP1;ratioP1;P2;durP2;ratioP2
6985;SDS011;3533;51.246;6.850;2024-01-07T00:00:18;4.27;;;3.97;;
6985;SDS011;3533;51.246;6.850;2024-01-07T00:02:44;3.43;;;3.20;;
6985;SDS011;3533;51.246;6.850;2024-01-07T00:05:09;3.53;;;3.33;;
6985;SDS011;3533;51.246;6.850;2024-01-07T00:07:35;4.80;;;4.40;;
6985;SDS011;3533;51.246;6.850;2024-01-07T00:10:00;3.83;;;3.63;;
6985;SDS011;3533;51.246;6.850;2024-01-07T00:12:26;4.10;;;3.90;;
6985;SDS011;3533;51.246;6.850;2024-01-07T00:14:51;3.80;;;3.60;;
6985;SDS011;3533;51.246;6.850;2024-01-07T00:17:17;4.13;;;3.73;;
6985;SDS011;3533;51.246;6.850;2024-01-07T00:19:43;4.43;;;4.13;;
6985;SDS011;3533;51.246;6.850;2024-01-07T00:22:08;4.20;;;3.90;;
6985;SDS011;3533;51.246;6.850;2024-01-07T00:24:34;4.33;;;4.03;;
6985;SDS011;3533;51.246;6.850;2024-01-07T00:26:59;4.17;;;3.87;;
6985;SDS011;3533;51.246;6.850;2024-01-07T00:29:25;3.70;;;3.50;;
6985;SDS011;3533;51.246;6.850;2024-01-07T00:31:50;4.50;;;4.20;;
6985;SDS011;3533;51.246;6.850;2024-01-07T00:34:16;3.90;;;3.70;;
6985;SDS011;3533;51.246;6.850;2024-01-07T00:36:41;4.00;;;3.70;;
6985;SDS011;3533;51.246;6.850;2024-01-07T00:39:07;4.33;;;4.03;;
6985;SDS011;3533;51.246;6.850;2024-01-07T00:41:32;4.10;;;3.90;;
6985;SDS011;3533;51.246;6.850;2024-01-07T00:43:58;4.80;;;4.50;;
6985;SDS011;3533;51.246;6.850;2024-01-07T00:46:23;4.30;;;4.10;;
6985;SDS011;3533;51.246;6.850;2024-01-07T00:48:49;4.07;;;3.83;;
6985;SDS011;3533;51.246;6.850;2024-01-07T00:51:14;3.50;;;3.30;;
6985;SDS011;3533;51.246;6.850;2024-01-07T00:53:40;3.53;;;3.33;;
6985;SDS011;3533;51.246;6.850;2024-01-07T00:56:06;3.40;;;3.20;;
6985;SDS011;3533;51.246;6.850;2024-01-07T00:58:32;4.20;;;3.90;;
6985;SDS011;3533;51.246;6.850;2024-01-07T01:00:57;4.00;;;3.70;;
6985;SDS011;3533;51.246;6.850;2024-01-07T01:03:25;4.50;;;4.20;;
6985;SDS011;3533;51.246;6.850;2024-01-07T01:05:50;4.30;;;4.00;;
6985;SDS011;3533;51.246;6.850;2024-01-07T01:08:16;4.40;;;3.50;;
6985;SDS011;3533;51.246;6.850;2024-01-07T01:10:42;3.70;;;3.50;;
6985;SDS011;3533;51.246;6.850;2024-01-07T01:13:07;4.27;;;3.80;;
6985;SDS011;3533;51.246;6.850;2024-01-07T01:15:33;4.57;;;4.37;;
6985;SDS011;3533;51.246;6.850;2024-01-07T01:17:59;4.10;;;3.90;;
6985;SDS011;3533;51.246;6.850;2024-01-07T01:20:24;4.47;;;4.17;;
6985;SDS011;3533;51.246;6.850;2024-01-07T01:22:50;3.87;;;3.57;;
6985;SDS011;3533;51.246;6.850;2024-01-07T01:25:15;4.00;;;3.80;;
6985;SDS011;3533;51.246;6.850;2024-01-07T01:27:41;4.57;;;4.27;;
6985;SDS011;3533;51.246;6.850;2024-01-07T01:30:07;4.00;;;3.80;;
6985;SDS011;3533;51.246;6.850;2024-01-07T01:32:33;3.40;;;3.20;;
6985;SDS011;3533;51.246;6.850;2024-01-07T01:34:58;3.77;;;3.57;;
6985;SDS011;3533;51.246;6.850;2024-01-07T01:37:24;3.57;;;3.37;;
6985;SDS011;3533;51.246;6.850;2024-01-07T01:39:49;4.00;;;3.70;;
6985;SDS011;3533;51.246;6.850;2024-01-07T01:42:15;3.67;;;3.47;;
6985;SDS011;3533;51.246;6.850;2024-01-07T01:44:41;3.93;;;3.73;;
6985;SDS011;3533;51.246;6.850;2024-01-07T01:47:07;3.90;;;3.70;;
6985;SDS011;3533;51.246;6.850;2024-01-07T01:49:33;4.00;;;3.70;;
6985;SDS011;3533;51.246;6.850;2024-01-07T01:52:00;3.50;;;3.30;;
6985;SDS011;3533;51.246;6.850;2024-01-07T01:54:26;3.77;;;3.57;;
6985;SDS011;3533;51.246;6.850;2024-01-07T01:56:52;3.60;;;3.40;;
6985;SDS011;3533;51.246;6.850;2024-01-07T01:59:17;3.93;;;3.73;;
6985;SDS011;3533;51.246;6.850;2024-01-07T02:01:44;3.73;;;3.53;;
6985;SDS011;3533;51.246;6.850;2024-01-07T02:04:10;3.70;;;3.40;;
6985;SDS011;3533;51.246;6.850;2024-01-07T02:06:36;3.90;;;3.70;;
6985;SDS011;3533;51.246;6.850;2024-01-07T02:09:02;3.80;;;3.60;;
6985;SDS011;3533;51.246;6.850;2024-01-07T02:11:28;3.70;;;3.50;;
6985;SDS011;3533;51.246;6.850;2024-01-07T02:13:54;3.70;;;3.50;;
6985;SDS011;3533;51.246;6.850;2024-01-07T02:16:29;3.73;;;3.53;;
6985;SDS011;3533;51.246;6.850;2024-01-07T02:18:54;4.23;;;3.93;;
6985;SDS011;3533;51.246;6.850;2024-01-07T02:21:20;3.57;;;3.37;;
6985;SDS011;3533;51.246;6.850;2024-01-07T02:23:45;4.00;;;3.80;;
6985;SDS011;3533;51.246;6.850;2024-01-07T02:26:11;3.40;;;3.20;;
6985;SDS011;3533;51.246;6.850;2024-01-07T02:28:36;3.70;;;3.50;;
6985;SDS011;3533;51.246;6.850;2024-01-07T02:31:02;3.57;;;3.37;;
6985;SDS011;3533;51.246;6.850;2024-01-07T02:33:27;3.70;;;3.50;;
6985;SDS011;3533;51.246;6.850;2024-01-07T02:35:54;3.40;;;3.20;;
6985;SDS011;3533;51.246;6.850;2024-01-07T02:38:19;3.30;;;3.10;;
6985;SDS011;3533;51.246;6.850;2024-01-07T02:40:45;3.23;;;3.03;;
6985;SDS011;3533;51.246;6.850;2024-01-07T02:43:10;3.20;;;3.00;;
6985;SDS011;3533;51.246;6.850;2024-01-07T02:45:36;3.40;;;3.20;;
6985;SDS011;3533;51.246;6.850;2024-01-07T02:48:02;3.00;;;2.80;;
6985;SDS011;3533;51.246;6.850;2024-01-07T02:50:27;3.37;;;3.17;;
6985;SDS011;3533;51.246;6.850;2024-01-07T02:52:53;3.30;;;3.10;;
6985;SDS011;3533;51.246;6.850;2024-01-07T02:55:18;2.73;;;2.63;;
6985;SDS011;3533;51.246;6.850;2024-01-07T02:57:44;2.97;;;2.87;;
6985;SDS011;3533;51.246;6.850;2024-01-07T03:00:10;3.57;;;3.37;;
6985;SDS011;3533;51.246;6.850;2024-01-07T03:02:35;3.67;;;3.47;;
6985;SDS011;3533;51.246;6.850;2024-01-07T03:05:01;3.30;;;3.10;;
6985;SDS011;3533;51.246;6.850;2024-01-07T03:07:27;3.57;;;3.37;;
6985;SDS011;3533;51.246;6.850;2024-01-07T03:09:52;2.97;;;2.77;;
6985;SDS011;3533;51.246;6.850;2024-01-07T03:12:18;2.70;;;2.60;;
6985;SDS011;3533;51.246;6.850;2024-01-07T03:14:43;3.20;;;3.00;;
6985;SDS011;3533;51.246;6.850;2024-01-07T03:17:10;2.87;;;2.70;;
6985;SDS011;3533;51.246;6.850;2024-01-07T03:19:37;3.07;;;2.87;;
6985;SDS011;3533;51.246;6.850;2024-01-07T03:22:03;3.30;;;3.10;;
6985;SDS011;3533;51.246;6.850;2024-01-07T03:24:30;3.13;;;3.03;;
6985;SDS011;3533;51.246;6.850;2024-01-07T03:26:56;2.50;;;2.40;;
6985;SDS011;3533;51.246;6.850;2024-01-07T03:29:21;3.23;;;3.03;;
6985;SDS011;3533;51.246;6.850;2024-01-07T03:31:47;3.10;;;2.90;;
6985;SDS011;3533;51.246;6.850;2024-01-07T03:34:12;2.80;;;2.70;;
6985;SDS011;3533;51.246;6.850;2024-01-07T03:36:38;3.60;;;3.40;;
6985;SDS011;3533;51.246;6.850;2024-01-07T03:39:04;3.37;;;3.17;;
6985;SDS011;3533;51.246;6.850;2024-01-07T03:41:29;3.57;;;3.37;;
6985;SDS011;3533;51.246;6.850;2024-01-07T03:43:55;2.93;;;2.73;;
6985;SDS011;3533;51.246;6.850;2024-01-07T03:46:21;3.30;;;3.10;;
6985;SDS011;3533;51.246;6.850;2024-01-07T03:48:47;3.00;;;2.80;;
6985;SDS011;3533;51.246;6.850;2024-01-07T03:51:12;3.20;;;3.00;;
6985;SDS011;3533;51.246;6.850;2024-01-07T03:53:38;3.17;;;2.97;;
6985;SDS011;3533;51.246;6.850;2024-01-07T03:56:04;2.83;;;2.73;;
6985;SDS011;3533;51.246;6.850;2024-01-07T03:58:30;3.60;;;3.40;;
6985;SDS011;3533;51.246;6.850;2024-01-07T04:00:56;3.37;;;3.17;;
6985;SDS011;3533;51.246;6.850;2024-01-07T04:03:21;2.80;;;2.70;;
6985;SDS011;3533;51.246;6.850;2024-01-07T04:05:47;3.27;;;3.07;;
6985;SDS011;3533;51.246;6.850;2024-01-07T04:08:12;2.70;;;2.60;;
6985;SDS011;3533;51.246;6.850;2024-01-07T04:10:40;2.90;;;2.70;;
6985;SDS011;3533;51.246;6.850;2024-01-07T04:13:06;3.47;;;3.27;;
6985;SDS011;3533;51.246;6.850;2024-01-07T04:15:32;3.13;;;2.93;;
6985;SDS011;3533;51.246;6.850;2024-01-07T04:18:00;3.30;;;3.10;;
6985;SDS011;3533;51.246;6.850;2024-01-07T04:20:27;2.70;;;2.60;;
6985;SDS011;3533;51.246;6.850;2024-01-07T04:22:54;3.33;;;3.13;;
6985;SDS011;3533;51.246;6.850;2024-01-07T04:25:20;3.17;;;2.97;;
6985;SDS011;3533;51.246;6.850;2024-01-07T04:27:45;2.83;;;2.70;;
6985;SDS011;3533;51.246;6.850;2024-01-07T04:30:11;3.80;;;3.20;;
6985;SDS011;3533;51.246;6.850;2024-01-07T04:32:37;3.20;;;3.00;;
6985;SDS011;3533;51.246;6.850;2024-01-07T04:35:02;2.70;;;2.57;;
6985;SDS011;3533;51.246;6.850;2024-01-07T04:37:28;3.10;;;2.90;;
6985;SDS011;3533;51.246;6.850;2024-01-07T04:39:54;2.63;;;2.53;;
6985;SDS011;3533;51.246;6.850;2024-01-07T04:42:19;2.80;;;2.70;;
6985;SDS011;3533;51.246;6.850;2024-01-07T04:44:45;3.20;;;3.00;;
6985;SDS011;3533;51.246;6.850;2024-01-07T04:47:24;3.40;;;3.20;;
6985;SDS011;3533;51.246;6.850;2024-01-07T04:49:54;3.13;;;2.93;;
6985;SDS011;3533;51.246;6.850;2024-01-07T04:52:19;2.70;;;2.50;;
6985;SDS011;3533;51.246;6.850;2024-01-07T04:54:46;2.93;;;2.73;;
6985;SDS011;3533;51.246;6.850;2024-01-07T04:57:12;2.70;;;2.60;;
6985;SDS011;3533;51.246;6.850;2024-01-07T04:59:37;2.33;;;2.23;;
6985;SDS011;3533;51.246;6.850;2024-01-07T05:02:03;2.93;;;2.83;;
6985;SDS011;3533;51.246;6.850;2024-01-07T05:04:29;2.67;;;2.57;;
6985;SDS011;3533;51.246;6.850;2024-01-07T05:06:54;3.07;;;2.90;;
6985;SDS011;3533;51.246;6.850;2024-01-07T05:09:20;2.90;;;2.70;;
6985;SDS011;3533;51.246;6.850;2024-01-07T05:11:45;2.93;;;2.80;;
6985;SDS011;3533;51.246;6.850;2024-01-07T05:14:11;2.90;;;2.70;;
6985;SDS011;3533;51.246;6.850;2024-01-07T05:16:37;4.30;;;4.00;;
6985;SDS011;3533;51.246;6.850;2024-01-07T05:19:02;2.87;;;2.67;;
6985;SDS011;3533;51.246;6.850;2024-01-07T05:21:28;2.83;;;2.63;;
6985;SDS011;3533;51.246;6.850;2024-01-07T05:23:54;2.90;;;2.70;;
6985;SDS011;3533;51.246;6.850;2024-01-07T05:26:19;2.70;;;2.50;;
6985;SDS011;3533;51.246;6.850;2024-01-07T05:28:46;3.10;;;2.90;;
6985;SDS011;3533;51.246;6.850;2024-01-07T05:31:15;2.60;;;2.50;;
6985;SDS011;3533;51.246;6.850;2024-01-07T05:33:41;2.70;;;2.57;;
6985;SDS011;3533;51.246;6.850;2024-01-07T05:36:07;2.60;;;2.50;;
6985;SDS011;3533;51.246;6.850;2024-01-07T05:38:33;2.87;;;2.70;;
6985;SDS011;3533;51.246;6.850;2024-01-07T05:40:59;2.73;;;2.53;;
6985;SDS011;3533;51.246;6.850;2024-01-07T05:43:24;2.57;;;2.40;;
6985;SDS011;3533;51.246;6.850;2024-01-07T05:45:50;2.83;;;2.63;;
6985;SDS011;3533;51.246;6.850;2024-01-07T05:48:15;2.60;;;2.40;;
6985;SDS011;3533;51.246;6.850;2024-01-07T05:50:41;3.07;;;2.87;;
6985;SDS011;3533;51.246;6.850;2024-01-07T05:53:06;2.73;;;2.53;;
6985;SDS011;3533;51.246;6.850;2024-01-07T05:55:32;2.47;;;2.37;;
6985;SDS011;3533;51.246;6.850;2024-01-07T05:57:58;2.67;;;2.47;;
6985;SDS011;3533;51.246;6.850;2024-01-07T06:00:23;2.93;;;2.73;;
6985;SDS011;3533;51.246;6.850;2024-01-07T06:02:49;2.60;;;2.50;;
6985;SDS011;3533;51.246;6.850;2024-01-07T06:05:14;2.30;;;2.20;;
6985;SDS011;3533;51.246;6.850;2024-01-07T06:07:40;2.37;;;2.27;;
6985;SDS011;3533;51.246;6.850;2024-01-07T06:10:05;2.90;;;2.70;;
6985;SDS011;3533;51.246;6.850;2024-01-07T06:12:31;2.30;;;2.20;;
6985;SDS011;3533;51.246;6.850;2024-01-07T06:14:57;2.90;;;2.70;;
6985;SDS011;3533;51.246;6.850;2024-01-07T06:17:22;3.20;;;2.93;;
6985;SDS011;3533;51.246;6.850;2024-01-07T06:19:48;2.60;;;2.50;;
6985;SDS011;3533;51.246;6.850;2024-01-07T06:22:14;2.67;;;2.57;;
6985;SDS011;3533;51.246;6.850;2024-01-07T06:24:40;2.27;;;2.17;;
6985;SDS011;3533;51.246;6.850;2024-01-07T06:27:05;2.10;;;2.00;;
6985;SDS011;3533;51.246;6.850;2024-01-07T06:29:31;2.77;;;2.67;;
6985;SDS011;3533;51.246;6.850;2024-01-07T06:31:57;2.80;;;2.70;;
6985;SDS011;3533;51.246;6.850;2024-01-07T06:34:22;3.17;;;2.97;;
6985;SDS011;3533;51.246;6.850;2024-01-07T06:36:48;2.87;;;2.70;;
6985;SDS011;3533;51.246;6.850;2024-01-07T06:39:13;2.50;;;2.40;;
6985;SDS011;3533;51.246;6.850;2024-01-07T06:41:39;2.30;;;2.20;;
6985;SDS011;3533;51.246;6.850;2024-01-07T06:44:04;2.93;;;2.73;;
6985;SDS011;3533;51.246;6.850;2024-01-07T06:46:30;2.47;;;2.37;;
6985;SDS011;3533;51.246;6.850;2024-01-07T06:48:56;2.27;;;2.17;;
6985;SDS011;3533;51.246;6.850;2024-01-07T06:51:21;2.40;;;2.30;;
6985;SDS011;3533;51.246;6.850;2024-01-07T06:53:47;2.33;;;2.23;;
6985;SDS011;3533;51.246;6.850;2024-01-07T06:56:13;2.40;;;2.30;;
6985;SDS011;3533;51.246;6.850;2024-01-07T06:58:38;2.40;;;2.20;;
6985;SDS011;3533;51.246;6.850;2024-01-07T07:01:06;2.57;;;2.47;;
6985;SDS011;3533;51.246;6.850;2024-01-07T07:03:32;2.63;;;2.53;;
6985;SDS011;3533;51.246;6.850;2024-01-07T07:05:57;2.40;;;2.30;;
6985;SDS011;3533;51.246;6.850;2024-01-07T07:08:23;2.33;;;2.23;;
6985;SDS011;3533;51.246;6.850;2024-01-07T07:10:50;2.33;;;2.23;;
6985;SDS011;3533;51.246;6.850;2024-01-07T07:13:15;2.33;;;2.23;;
6985;SDS011;3533;51.246;6.850;2024-01-07T07:15:41;2.40;;;2.30;;
6985;SDS011;3533;51.246;6.850;2024-01-07T07:18:07;2.33;;;2.23;;
6985;SDS011;3533;51.246;6.850;2024-01-07T07:20:33;2.90;;;2.80;;
6985;SDS011;3533;51.246;6.850;2024-01-07T07:22:59;2.73;;;2.53;;
6985;SDS011;3533;51.246;6.850;2024-01-07T07:25:24;2.33;;;2.23;;
6985;SDS011;3533;51.246;6.850;2024-01-07T07:27:50;2.60;;;2.40;;
6985;SDS011;3533;51.246;6.850;2024-01-07T07:30:15;3.10;;;2.80;;
6985;SDS011;3533;51.246;6.850;2024-01-07T07:32:41;2.50;;;2.30;;
6985;SDS011;3533;51.246;6.850;2024-01-07T07:35:07;2.37;;;2.27;;
6985;SDS011;3533;51.246;6.850;2024-01-07T07:37:32;2.50;;;2.40;;
6985;SDS011;3533;51.246;6.850;2024-01-07T07:39:58;2.50;;;2.40;;
6985;SDS011;3533;51.246;6.850;2024-01-07T07:42:24;2.10;;;2.00;;
6985;SDS011;3533;51.246;6.850;2024-01-07T07:44:49;2.30;;;2.20;;
6985;SDS011;3533;51.246;6.850;2024-01-07T07:47:16;2.20;;;2.00;;
6985;SDS011;3533;51.246;6.850;2024-01-07T07:49:41;2.87;;;2.77;;
6985;SDS011;3533;51.246;6.850;2024-01-07T07:52:07;2.50;;;2.40;;
6985;SDS011;3533;51.246;6.850;2024-01-07T07:54:37;2.63;;;2.43;;
6985;SDS011;3533;51.246;6.850;2024-01-07T07:57:03;2.50;;;2.40;;
6985;SDS011;3533;51.246;6.850;2024-01-07T07:59:28;2.90;;;2.70;;
6985;SDS011;3533;51.246;6.850;2024-01-07T08:01:54;2.40;;;2.30;;
6985;SDS011;3533;51.246;6.850;2024-01-07T08:04:20;2.93;;;2.83;;
6985;SDS011;3533;51.246;6.850;2024-01-07T08:06:45;2.70;;;2.50;;
6985;SDS011;3533;51.246;6.850;2024-01-07T08:09:11;2.33;;;2.23;;
6985;SDS011;3533;51.246;6.850;2024-01-07T08:11:36;2.20;;;2.10;;
6985;SDS011;3533;51.246;6.850;2024-01-07T08:14:02;2.50;;;2.40;;
6985;SDS011;3533;51.246;6.850;2024-01-07T08:16:27;2.30;;;2.20;;
6985;SDS011;3533;51.246;6.850;2024-01-07T08:18:53;2.30;;;2.20;;
6985;SDS011;3533;51.246;6.850;2024-01-07T08:21:21;2.37;;;2.27;;
6985;SDS011;3533;51.246;6.850;2024-01-07T08:23:48;2.50;;;2.40;;
6985;SDS011;3533;51.246;6.850;2024-01-07T08:26:20;2.60;;;2.40;;
6985;SDS011;3533;51.246;6.850;2024-01-07T08:28:46;2.47;;;2.30;;
6985;SDS011;3533;51.246;6.850;2024-01-07T08:31:11;3.00;;;2.70;;
6985;SDS011;3533;51.246;6.850;2024-01-07T08:33:37;2.20;;;2.10;;
6985;SDS011;3533;51.246;6.850;2024-01-07T08:36:03;4.40;;;4.00;;
6985;SDS011;3533;51.246;6.850;2024-01-07T08:38:29;2.50;;;2.30;;
6985;SDS011;3533;51.246;6.850;2024-01-07T08:40:55;2.70;;;2.50;;
6985;SDS011;3533;51.246;6.850;2024-01-07T08:43:20;4.03;;;2.57;;
6985;SDS011;3533;51.246;6.850;2024-01-07T08:45:46;2.73;;;2.50;;
6985;SDS011;3533;51.246;6.850;2024-01-07T08:48:11;2.23;;;2.03;;
6985;SDS011;3533;51.246;6.850;2024-01-07T08:50:38;2.73;;;2.53;;
6985;SDS011;3533;51.246;6.850;2024-01-07T08:53:03;2.70;;;2.50;;
6985;SDS011;3533;51.246;6.850;2024-01-07T08:55:29;2.63;;;2.10;;
6985;SDS011;3533;51.246;6.850;2024-01-07T08:57:55;6.60;;;2.93;;
6985;SDS011;3533;51.246;6.850;2024-01-07T09:00:21;2.28;;;2.17;;
6985;SDS011;3533;51.246;6.850;2024-01-07T09:02:50;4.30;;;3.07;;
6985;SDS011;3533;51.246;6.850;2024-01-07T09:05:16;3.40;;;3.20;;
6985;SDS011;3533;51.246;6.850;2024-01-07T09:07:42;2.67;;;2.47;;
6985;SDS011;3533;51.246;6.850;2024-01-07T09:10:07;2.93;;;2.73;;
6985;SDS011;3533;51.246;6.850;2024-01-07T09:12:38;2.90;;;2.40;;
6985;SDS011;3533;51.246;6.850;2024-01-07T09:15:06;4.90;;;2.80;;
6985;SDS011;3533;51.246;6.850;2024-01-07T09:17:36;2.43;;;2.23;;
6985;SDS011;3533;51.246;6.850;2024-01-07T09:20:03;2.03;;;1.93;;
6985;SDS011;3533;51.246;6.850;2024-01-07T09:22:32;2.77;;;2.67;;
6985;SDS011;3533;51.246;6.850;2024-01-07T09:24:58;2.53;;;2.43;;
6985;SDS011;3533;51.246;6.850;2024-01-07T09:27:23;2.70;;;2.50;;
6985;SDS011;3533;51.246;6.850;2024-01-07T09:29:49;2.60;;;2.40;;
6985;SDS011;3533;51.246;6.850;2024-01-07T09:32:14;3.00;;;2.80;;
6985;SDS011;3533;51.246;6.850;2024-01-07T09:34:40;2.20;;;2.10;;
6985;SDS011;3533;51.246;6.850;2024-01-07T09:37:05;2.23;;;2.07;;
6985;SDS011;3533;51.246;6.850;2024-01-07T09:39:31;2.73;;;2.47;;
6985;SDS011;3533;51.246;6.850;2024-01-07T09:41:57;2.40;;;2.30;;
6985;SDS011;3533;51.246;6.850;2024-01-07T09:44:22;2.20;;;2.00;;
6985;SDS011;3533;51.246;6.850;2024-01-07T09:46:48;2.00;;;1.90;;
6985;SDS011;3533;51.246;6.850;2024-01-07T09:49:17;3.60;;;2.20;;
6985;SDS011;3533;51.246;6.850;2024-01-07T09:51:43;2.40;;;2.20;;
6985;SDS011;3533;51.246;6.850;2024-01-07T09:54:12;2.30;;;2.20;;
6985;SDS011;3533;51.246;6.850;2024-01-07T09:56:43;2.20;;;2.00;;
6985;SDS011;3533;51.246;6.850;2024-01-07T09:59:16;2.30;;;2.20;;
6985;SDS011;3533;51.246;6.850;2024-01-07T10:01:43;3.60;;;2.10;;
6985;SDS011;3533;51.246;6.850;2024-01-07T10:04:10;3.93;;;3.10;;
6985;SDS011;3533;51.246;6.850;2024-01-07T10:06:36;2.60;;;2.20;;
6985;SDS011;3533;51.246;6.850;2024-01-07T10:09:02;2.00;;;1.90;;
6985;SDS011;3533;51.246;6.850;2024-01-07T10:11:31;2.77;;;2.57;;
6985;SDS011;3533;51.246;6.850;2024-01-07T10:13:56;2.50;;;2.40;;
6985;SDS011;3533;51.246;6.850;2024-01-07T10:16:22;4.40;;;2.00;;
6985;SDS011;3533;51.246;6.850;2024-01-07T10:18:48;2.13;;;2.03;;
6985;SDS011;3533;51.246;6.850;2024-01-07T10:21:13;3.17;;;2.13;;
6985;SDS011;3533;51.246;6.850;2024-01-07T10:23:39;2.30;;;2.20;;
6985;SDS011;3533;51.246;6.850;2024-01-07T10:26:06;2.67;;;2.47;;
6985;SDS011;3533;51.246;6.850;2024-01-07T10:28:32;2.47;;;2.37;;
6985;SDS011;3533;51.246;6.850;2024-01-07T10:30:57;2.20;;;2.00;;
6985;SDS011;3533;51.246;6.850;2024-01-07T10:33:23;2.27;;;2.07;;
6985;SDS011;3533;51.246;6.850;2024-01-07T10:35:52;2.23;;;2.13;;
6985;SDS011;3533;51.246;6.850;2024-01-07T10:38:25;2.30;;;2.10;;
6985;SDS011;3533;51.246;6.850;2024-01-07T10:40:51;2.30;;;2.20;;
6985;SDS011;3533;51.246;6.850;2024-01-07T10:43:20;2.97;;;2.60;;
6985;SDS011;3533;51.246;6.850;2024-01-07T10:45:46;2.40;;;2.20;;
6985;SDS011;3533;51.246;6.850;2024-01-07T10:48:17;2.20;;;2.00;;
6985;SDS011;3533;51.246;6.850;2024-01-07T10:50:44;2.27;;;2.07;;
6985;SDS011;3533;51.246;6.850;2024-01-07T10:53:14;2.13;;;2.03;;
6985;SDS011;3533;51.246;6.850;2024-01-07T10:55:44;2.47;;;2.37;;
6985;SDS011;3533;51.246;6.850;2024-01-07T10:58:19;2.63;;;2.43;;
6985;SDS011;3533;51.246;6.850;2024-01-07T11:00:46;2.73;;;2.27;;
6985;SDS011;3533;51.246;6.850;2024-01-07T11:05:48;2.00;;;1.90;;
6985;SDS011;3533;51.246;6.850;2024-01-07T11:08:22;2.10;;;2.00;;
6985;SDS011;3533;51.246;6.850;2024-01-07T11:10:55;2.67;;;2.47;;
6985;SDS011;3533;51.246;6.850;2024-01-07T11:13:35;2.73;;;2.53;;
6985;SDS011;3533;51.246;6.850;2024-01-07T11:16:03;1.90;;;1.80;;
6985;SDS011;3533;51.246;6.850;2024-01-07T11:18:40;2.17;;;1.97;;
6985;SDS011;3533;51.246;6.850;2024-01-07T11:21:24;2.17;;;1.93;;
6985;SDS011;3533;51.246;6.850;2024-01-07T11:23:51;3.27;;;2.10;;
6985;SDS011;3533;51.246;6.850;2024-01-07T11:26:18;2.27;;;1.90;;
6985;SDS011;3533;51.246;6.850;2024-01-07T11:31:12;2.33;;;2.13;;
6985;SDS011;3533;51.246;6.850;2024-01-07T11:33:39;2.07;;;1.97;;
6985;SDS011;3533;51.246;6.850;2024-01-07T11:36:07;1.90;;;1.80;;
6985;SDS011;3533;51.246;6.850;2024-01-07T11:38:33;2.13;;;2.03;;
6985;SDS011;3533;51.246;6.850;2024-01-07T11:41:00;2.13;;;2.03;;
6985;SDS011;3533;51.246;6.850;2024-01-07T11:43:28;1.87;;;1.77;;
6985;SDS011;3533;51.246;6.850;2024-01-07T11:45:54;2.17;;;2.07;;
6985;SDS011;3533;51.246;6.850;2024-01-07T11:48:20;2.17;;;2.00;;
6985;SDS011;3533;51.246;6.850;2024-01-07T11:50:45;1.93;;;1.83;;
6985;SDS011;3533;51.246;6.850;2024-01-07T11:53:11;1.87;;;1.77;;
6985;SDS011;3533;51.246;6.850;2024-01-07T11:55:37;2.57;;;2.00;;
6985;SDS011;3533;51.246;6.850;2024-01-07T11:58:03;2.07;;;1.97;;
6985;SDS011;3533;51.246;6.850;2024-01-07T12:00:32;1.87;;;1.77;;
6985;SDS011;3533;51.246;6.850;2024-01-07T12:03:02;1.70;;;1.60;;
6985;SDS011;3533;51.246;6.850;2024-01-07T12:05:28;2.10;;;2.00;;
6985;SDS011;3533;51.246;6.850;2024-01-07T12:07:55;1.70;;;1.60;;
6985;SDS011;3533;51.246;6.850;2024-01-07T12:10:21;1.87;;;1.77;;
6985;SDS011;3533;51.246;6.850;2024-01-07T12:12:48;1.90;;;1.80;;
6985;SDS011;3533;51.246;6.850;2024-01-07T12:15:16;1.90;;;1.80;;
6985;SDS011;3533;51.246;6.850;2024-01-07T12:17:42;2.03;;;1.93;;
6985;SDS011;3533;51.246;6.850;2024-01-07T12:20:14;2.27;;;2.07;;
6985;SDS011;3533;51.246;6.850;2024-01-07T12:22:40;2.10;;;2.00;;
6985;SDS011;3533;51.246;6.850;2024-01-07T12:25:06;2.00;;;1.90;;
6985;SDS011;3533;51.246;6.850;2024-01-07T12:27:32;2.00;;;1.90;;
6985;SDS011;3533;51.246;6.850;2024-01-07T12:29:59;2.43;;;2.23;;
6985;SDS011;3533;51.246;6.850;2024-01-07T12:32:29;2.33;;;1.83;;
6985;SDS011;3533;51.246;6.850;2024-01-07T12:34:58;1.70;;;1.60;;
6985;SDS011;3533;51.246;6.850;2024-01-07T12:37:27;2.13;;;2.03;;
6985;SDS011;3533;51.246;6.850;2024-01-07T12:39:54;1.90;;;1.80;;
6985;SDS011;3533;51.246;6.850;2024-01-07T12:42:19;2.43;;;2.20;;
6985;SDS011;3533;51.246;6.850;2024-01-07T12:44:49;2.13;;;2.03;;
6985;SDS011;3533;51.246;6.850;2024-01-07T12:47:14;2.00;;;1.80;;
6985;SDS011;3533;51.246;6.850;2024-01-07T12:49:41;2.10;;;2.00;;
6985;SDS011;3533;51.246;6.850;2024-01-07T12:52:06;1.97;;;1.87;;
6985;SDS011;3533;51.246;6.850;2024-01-07T12:54:32;2.50;;;2.30;;
6985;SDS011;3533;51.246;6.850;2024-01-07T12:56:58;2.40;;;2.20;;
6985;SDS011;3533;51.246;6.850;2024-01-07T12:59:24;1.97;;;1.87;;
6985;SDS011;3533;51.246;6.850;2024-01-07T13:01:49;3.57;;;2.40;;
6985;SDS011;3533;51.246;6.850;2024-01-07T13:04:16;2.27;;;2.17;;
6985;SDS011;3533;51.246;6.850;2024-01-07T13:06:42;2.03;;;1.93;;
6985;SDS011;3533;51.246;6.850;2024-01-07T13:09:07;2.20;;;2.10;;
6985;SDS011;3533;51.246;6.850;2024-01-07T13:11:34;2.23;;;2.13;;
6985;SDS011;3533;51.246;6.850;2024-01-07T13:13:59;2.70;;;2.50;;
6985;SDS011;3533;51.246;6.850;2024-01-07T13:16:26;2.23;;;2.13;;
6985;SDS011;3533;51.246;6.850;2024-01-07T13:18:53;2.07;;;1.97;;
6985;SDS011;3533;51.246;6.850;2024-01-07T13:21:22;2.80;;;2.60;;
6985;SDS011;3533;51.246;6.850;2024-01-07T13:23:47;2.53;;;2.43;;
6985;SDS011;3533;51.246;6.850;2024-01-07T13:26:13;2.07;;;1.97;;
6985;SDS011;3533;51.246;6.850;2024-01-07T13:28:39;2.40;;;2.20;;
6985;SDS011;3533;51.246;6.850;2024-01-07T13:31:06;2.10;;;2.00;;
6985;SDS011;3533;51.246;6.850;2024-01-07T13:33:32;2.07;;;1.97;;
6985;SDS011;3533;51.246;6.850;2024-01-07T13:35:58;2.17;;;2.03;;
6985;SDS011;3533;51.246;6.850;2024-01-07T13:38:23;2.20;;;2.10;;
6985;SDS011;3533;51.246;6.850;2024-01-07T13:40:49;2.50;;;2.10;;
6985;SDS011;3533;51.246;6.850;2024-01-07T13:43:15;2.20;;;2.10;;
6985;SDS011;3533;51.246;6.850;2024-01-07T13:45:41;2.00;;;1.90;;
6985;SDS011;3533;51.246;6.850;2024-01-07T13:48:06;2.20;;;2.10;;
6985;SDS011;3533;51.246;6.850;2024-01-07T13:50:32;2.17;;;2.07;;
6985;SDS011;3533;51.246;6.850;2024-01-07T13:52:58;1.97;;;1.87;;
6985;SDS011;3533;51.246;6.850;2024-01-07T13:55:24;2.33;;;2.13;;
6985;SDS011;3533;51.246;6.850;2024-01-07T13:57:49;2.00;;;1.90;;
6985;SDS011;3533;51.246;6.850;2024-01-07T14:00:15;2.03;;;1.93;;
6985;SDS011;3533;51.246;6.850;2024-01-07T14:02:43;1.60;;;1.50;;
6985;SDS011;3533;51.246;6.850;2024-01-07T14:05:10;2.23;;;2.10;;
6985;SDS011;3533;51.246;6.850;2024-01-07T14:07:36;2.00;;;1.90;;
6985;SDS011;3533;51.246;6.850;2024-01-07T14:10:03;1.80;;;1.70;;
6985;SDS011;3533;51.246;6.850;2024-01-07T14:12:33;2.00;;;1.90;;
6985;SDS011;3533;51.246;6.850;2024-01-07T14:14:59;2.00;;;1.90;;
6985;SDS011;3533;51.246;6.850;2024-01-07T14:17:25;2.20;;;2.10;;
6985;SDS011;3533;51.246;6.850;2024-01-07T14:19:50;2.40;;;2.07;;
6985;SDS011;3533;51.246;6.850;2024-01-07T14:22:18;2.07;;;1.97;;
6985;SDS011;3533;51.246;6.850;2024-01-07T14:24:47;2.07;;;1.97;;
6985;SDS011;3533;51.246;6.850;2024-01-07T14:27:16;2.20;;;2.00;;
6985;SDS011;3533;51.246;6.850;2024-01-07T14:29:43;2.03;;;1.93;;
6985;SDS011;3533;51.246;6.850;2024-01-07T14:32:09;1.70;;;1.60;;
6985;SDS011;3533;51.246;6.850;2024-01-07T14:34:37;1.90;;;1.80;;
6985;SDS011;3533;51.246;6.850;2024-01-07T14:37:04;2.00;;;1.70;;
6985;SDS011;3533;51.246;6.850;2024-01-07T14:39:30;1.70;;;1.60;;
6985;SDS011;3533;51.246;6.850;2024-01-07T14:41:55;1.63;;;1.53;;
6985;SDS011;3533;51.246;6.850;2024-01-07T14:44:21;1.90;;;1.80;;
6985;SDS011;3533;51.246;6.850;2024-01-07T14:46:47;2.57;;;1.73;;
6985;SDS011;3533;51.246;6.850;2024-01-07T14:49:13;2.73;;;1.93;;
6985;SDS011;3533;51.246;6.850;2024-01-07T14:51:38;2.53;;;2.33;;
6985;SDS011;3533;51.246;6.850;2024-01-07T14:54:04;1.93;;;1.83;;
6985;SDS011;3533;51.246;6.850;2024-01-07T14:56:29;3.80;;;2.00;;
6985;SDS011;3533;51.246;6.850;2024-01-07T14:58:55;2.70;;;2.07;;
6985;SDS011;3533;51.246;6.850;2024-01-07T15:01:20;2.27;;;2.17;;
6985;SDS011;3533;51.246;6.850;2024-01-07T15:03:46;2.03;;;1.93;;
6985;SDS011;3533;51.246;6.850;2024-01-07T15:06:12;2.33;;;2.00;;
6985;SDS011;3533;51.246;6.850;2024-01-07T15:08:40;1.93;;;1.83;;
6985;SDS011;3533;51.246;6.850;2024-01-07T15:11:06;2.10;;;2.00;;
6985;SDS011;3533;51.246;6.850;2024-01-07T15:13:31;2.30;;;2.10;;